Time;durP1;ratioP1;P1;durP2;ratioP2;P2;SDS_P1;SDS_P2;PMS_P1;PMS_P2;Temp;Humidity;BMP_temperature;BMP_pressure;BME280_temperature;BME280_humidity;BME280_pressure;Samples;Min_cycle;Max_cycle;Signal;HPM_P1;HPM_P2
2022/06/23 00:01:26;;;;;;;6.73;3.70;;;19.60;99.90;;;;;;5047288;28;21595;-54
2022/06/23 00:03:55;;;;;;;6.63;4.20;;;19.50;99.90;;;;;;5049180;28;20306;-53
2022/06/23 00:07:15;;;;;;;6.37;4.50;;;19.40;99.90;;;;;;5053245;28;20298;-54
2022/06/23 00:09:45;;;;;;;6.40;4.00;;;19.10;99.90;;;;;;4988048;28;20243;-53
2022/06/23 00:12:15;;;;;;;5.70;4.50;;;19.20;99.90;;;;;;4988381;28;20209;-53
2022/06/23 00:14:42;;;;;;;6.37;4.40;;;19.30;99.90;;;;;;4989019;28;20301;-51
2022/06/23 00:17:21;;;;;;;6.33;4.53;;;19.20;99.90;;;;;;4967924;28;20201;-53
2022/06/23 00:19:48;;;;;;;7.50;4.83;;;19.20;99.90;;;;;;4981792;28;20906;-54
2022/06/23 00:22:18;;;;;;;7.20;4.90;;;19.20;99.90;;;;;;4984421;28;20364;-54
2022/06/23 00:24:52;;;;;;;6.93;4.70;;;19.20;99.90;;;;;;4988043;28;20321;-54
2022/06/23 00:27:22;;;;;;;6.80;4.77;;;19.20;99.90;;;;;;4992907;28;20249;-53
2022/06/23 00:29:49;;;;;;;8.77;5.40;;;19.20;99.90;;;;;;4990470;28;20207;-54
2022/06/23 00:32:16;;;;;;;12.17;5.87;;;19.10;99.90;;;;;;4990065;28;20359;-54
2022/06/23 00:34:55;;;;;;;9.03;5.53;;;19.10;99.90;;;;;;4992186;28;20247;-53
2022/06/23 00:37:23;;;;;;;11.07;6.07;;;19.10;99.90;;;;;;4986143;28;20533;-54
2022/06/23 00:39:53;;;;;;;11.30;5.87;;;19.00;99.90;;;;;;5005057;28;20246;-54
2022/06/23 00:42:27;;;;;;;9.10;5.80;;;19.00;99.90;;;;;;5042988;28;20546;-54
2022/06/23 00:45:10;;;;;;;7.97;5.77;;;19.10;99.90;;;;;;5049631;28;20229;-54
2022/06/23 00:47:40;;;;;;;11.63;6.50;;;18.90;99.90;;;;;;5049317;28;20222;-54
2022/06/23 00:50:31;;;;;;;9.50;5.60;;;19.00;99.90;;;;;;5048712;28;20199;-53
2022/06/23 00:53:15;;;;;;;8.63;6.33;;;19.00;99.90;;;;;;5048687;28;20214;-54
2022/06/23 00:56:04;;;;;;;11.57;6.23;;;18.90;99.90;;;;;;5052525;28;20238;-56
2022/06/23 00:58:30;;;;;;;8.93;6.43;;;18.80;99.90;;;;;;5049210;28;20648;-54
2022/06/23 01:01:21;;;;;;;9.33;6.50;;;18.80;99.90;;;;;;5048846;28;20207;-54
2022/06/23 01:03:58;;;;;;;7.90;6.27;;;18.80;99.90;;;;;;5048120;28;20305;-54
2022/06/23 01:06:38;;;;;;;8.97;6.17;;;18.80;99.90;;;;;;5053690;28;20220;-54
2022/06/23 01:09:28;;;;;;;12.07;6.40;;;18.80;99.90;;;;;;5049047;28;20649;-54
2022/06/23 01:12:20;;;;;;;11.60;6.60;;;18.80;99.90;;;;;;5044319;28;20661;-54
2022/06/23 01:15:13;;;;;;;10.33;6.73;;;18.80;99.90;;;;;;5044547;28;20235;-53
2022/06/23 01:18:11;;;;;;;10.20;6.53;;;18.80;99.90;;;;;;5048091;28;20198;-54
2022/06/23 01:20:45;;;;;;;9.90;7.13;;;18.80;99.90;;;;;;5048867;28;20266;-54
2022/06/23 01:23:18;;;;;;;11.97;7.20;;;18.70;99.90;;;;;;5047108;28;20651;-53
2022/06/23 01:26:03;;;;;;;12.67;7.00;;;18.60;99.90;;;;;;5045040;28;20195;-54
2022/06/23 01:28:41;;;;;;;8.20;6.53;;;18.60;99.90;;;;;;5046153;28;20337;-54
2022/06/23 01:31:25;;;;;;;9.43;6.63;;;18.60;99.90;;;;;;5046123;28;20579;-54
2022/06/23 01:34:20;;;;;;;10.93;8.03;;;18.60;99.90;;;;;;5044367;28;20200;-54
2022/06/23 01:36:54;;;;;;;10.10;6.80;;;18.50;99.90;;;;;;5050584;28;20212;-54
2022/06/23 01:39:25;;;;;;;10.53;6.90;;;18.50;99.90;;;;;;5046995;28;20245;-54
2022/06/23 01:42:18;;;;;;;11.17;6.70;;;18.50;99.90;;;;;;5049596;28;20686;-54
2022/06/23 01:45:08;;;;;;;11.30;7.10;;;18.40;99.90;;;;;;5044927;28;20265;-54
2022/06/23 01:47:41;;;;;;;12.10;6.60;;;18.50;99.90;;;;;;5007339;28;20686;-52
2022/06/23 01:50:14;;;;;;;9.73;6.43;;;18.50;99.90;;;;;;5049786;28;20288;-55
2022/06/23 01:52:44;;;;;;;9.33;7.47;;;18.50;99.90;;;;;;5048600;28;20655;-54
2022/06/23 01:55:21;;;;;;;8.27;7.20;;;18.40;99.90;;;;;;5050467;28;20686;-54
2022/06/23 01:58:03;;;;;;;9.80;7.20;;;18.40;99.90;;;;;;5049657;28;20765;-53
2022/06/23 02:00:31;;;;;;;12.33;7.80;;;18.50;99.90;;;;;;5047328;28;20709;-54
2022/06/23 02:03:28;;;;;;;10.10;7.23;;;18.50;99.90;;;;;;5046468;28;20226;-54
2022/06/23 02:06:13;;;;;;;9.27;6.77;;;18.50;99.90;;;;;;5051075;28;20194;-54
2022/06/23 02:08:58;;;;;;;9.43;6.80;;;18.50;99.90;;;;;;5049509;28;20202;-54
2022/06/23 02:11:35;;;;;;;10.23;7.07;;;18.40;99.90;;;;;;5049974;28;20296;-54
2022/06/23 02:14:29;;;;;;;10.13;7.07;;;18.40;99.90;;;;;;5056516;28;20609;-54
2022/06/23 02:17:29;;;;;;;11.17;7.00;;;18.40;99.90;;;;;;5057988;28;20727;-54
2022/06/23 02:20:15;;;;;;;10.90;7.10;;;18.30;99.90;;;;;;5060313;28;20213;-54
2022/06/23 02:22:45;;;;;;;11.77;7.47;;;18.20;99.90;;;;;;5058081;28;20524;-54
2022/06/23 02:25:18;;;;;;;11.03;7.53;;;18.00;99.90;;;;;;5055831;28;20671;-54
2022/06/23 02:27:48;;;;;;;13.20;7.17;;;18.10;99.90;;;;;;5056100;28;20565;-54
2022/06/23 02:30:29;;;;;;;10.07;7.70;;;18.30;99.90;;;;;;5054303;28;20669;-54
2022/06/23 02:33:07;;;;;;;9.93;7.40;;;18.20;99.90;;;;;;5053480;28;20642;-54
2022/06/23 02:35:43;;;;;;;11.60;8.27;;;18.10;99.90;;;;;;5053312;28;20222;-54
2022/06/23 02:38:23;;;;;;;10.40;8.27;;;18.00;99.90;;;;;;5051625;28;20291;-54
2022/06/23 02:41:12;;;;;;;10.27;7.33;;;18.00;99.90;;;;;;5049336;28;20568;-54
2022/06/23 02:43:47;;;;;;;11.90;7.63;;;18.00;99.90;;;;;;5038201;28;20256;-54
2022/06/23 02:46:23;;;;;;;12.97;8.03;;;18.10;99.90;;;;;;5047446;28;20730;-54
2022/06/23 02:49:18;;;;;;;13.03;7.13;;;18.10;99.90;;;;;;5048112;28;20233;-53
2022/06/23 02:51:57;;;;;;;9.77;7.07;;;18.00;99.90;;;;;;5049608;28;20297;-54
2022/06/23 02:54:50;;;;;;;10.13;8.17;;;18.00;99.90;;;;;;5052957;28;20217;-53
2022/06/23 02:57:34;;;;;;;10.43;7.00;;;18.00;99.90;;;;;;5046428;28;21104;-54
2022/06/23 03:00:18;;;;;;;12.37;7.83;;;18.00;99.90;;;;;;5045894;28;20588;-53
2022/06/23 03:02:54;;;;;;;10.27;7.47;;;17.90;99.90;;;;;;5049409;28;20720;-54
2022/06/23 03:05:27;;;;;;;11.07;7.90;;;18.00;99.90;;;;;;5049660;28;20218;-54
2022/06/23 03:08:12;;;;;;;11.50;7.80;;;18.00;99.90;;;;;;5047032;28;20382;-54
2022/06/23 03:10:55;;;;;;;11.17;7.70;;;18.00;99.90;;;;;;5052199;28;20613;-54
2022/06/23 03:13:26;;;;;;;11.57;7.63;;;17.90;99.90;;;;;;5047051;28;20632;-54
2022/06/23 03:16:16;;;;;;;11.83;7.87;;;17.80;99.90;;;;;;5053426;28;20848;-54
2022/06/23 03:18:50;;;;;;;8.80;7.07;;;17.80;99.90;;;;;;5047838;28;20331;-54
2022/06/23 03:21:24;;;;;;;9.43;7.17;;;17.80;99.90;;;;;;5044108;28;20238;-54
2022/06/23 03:24:23;;;;;;;9.13;7.07;;;17.90;99.90;;;;;;5046508;28;20716;-53
2022/06/23 03:27:00;;;;;;;11.40;8.07;;;17.90;99.90;;;;;;5046030;28;20257;-54
2022/06/23 03:29:32;;;;;;;9.13;7.70;;;17.90;99.90;;;;;;5043402;28;20657;-53
2022/06/23 03:32:17;;;;;;;13.43;7.97;;;17.90;99.90;;;;;;5041189;28;20531;-54
2022/06/23 03:34:54;;;;;;;11.53;7.13;;;17.90;99.90;;;;;;5037596;28;20201;-54
2022/06/23 03:37:43;;;;;;;11.20;7.60;;;17.90;99.90;;;;;;5047658;28;20653;-54
2022/06/23 03:43:33;;;;;;;11.27;6.93;;;17.70;99.90;;;;;;5042073;28;20247;-54
2022/06/23 03:46:20;;;;;;;9.40;6.77;;;17.80;99.90;;;;;;5033510;28;20758;-53
2022/06/23 03:49:16;;;;;;;9.23;7.43;;;17.80;99.90;;;;;;5045040;28;20358;-53
2022/06/23 03:51:59;;;;;;;10.40;6.97;;;17.80;99.90;;;;;;5041739;28;20629;-54
2022/06/23 03:54:35;;;;;;;12.70;7.17;;;17.90;99.90;;;;;;5048353;28;20390;-54
2022/06/23 03:57:15;;;;;;;7.97;7.03;;;17.90;99.90;;;;;;5044917;28;20753;-54
2022/06/23 03:59:59;;;;;;;11.00;7.13;;;17.90;99.90;;;;;;5043269;28;20235;-53
2022/06/23 04:02:34;;;;;;;9.97;6.63;;;18.00;99.90;;;;;;5040162;28;20210;-54
2022/06/23 04:05:22;;;;;;;9.13;6.70;;;18.00;99.90;;;;;;5044638;28;20219;-54
2022/06/23 04:08:00;;;;;;;11.37;6.33;;;18.00;99.90;;;;;;5043552;28;20214;-54
2022/06/23 04:10:30;;;;;;;9.90;6.37;;;18.00;99.90;;;;;;5049558;28;20203;-54
2022/06/23 04:13:30;;;;;;;9.87;6.87;;;18.10;99.90;;;;;;5041426;28;20253;-54
2022/06/23 04:16:04;;;;;;;8.50;6.70;;;18.00;99.90;;;;;;5032090;28;20237;-53
2022/06/23 04:18:32;;;;;;;7.73;6.43;;;17.90;99.90;;;;;;5043239;28;20542;-53
2022/06/23 04:21:09;;;;;;;9.47;6.63;;;17.90;99.90;;;;;;5044032;28;20907;-56
2022/06/23 04:23:42;;;;;;;9.40;6.57;;;17.90;99.90;;;;;;5044265;28;20250;-54
2022/06/23 04:26:20;;;;;;;9.07;6.07;;;17.90;99.90;;;;;;5046737;28;20231;-54
2022/06/23 04:28:57;;;;;;;9.97;7.07;;;17.90;99.90;;;;;;5043246;28;20285;-55
2022/06/23 04:31:34;;;;;;;11.27;6.47;;;17.80;99.90;;;;;;5043214;28;20659;-55
2022/06/23 04:34:02;;;;;;;9.27;6.63;;;17.90;99.90;;;;;;5045495;28;20205;-54
2022/06/23 04:36:33;;;;;;;10.47;7.20;;;17.90;99.90;;;;;;5044726;28;20717;-53
2022/06/23 04:39:37;;;;;;;12.97;6.87;;;18.00;99.90;;;;;;5045132;28;20304;-54
2022/06/23 04:42:24;;;;;;;9.60;6.10;;;18.00;99.90;;;;;;5043619;28;20594;-53
2022/06/23 04:45:24;;;;;;;7.23;6.53;;;18.00;99.90;;;;;;5041989;28;20245;-53
2022/06/23 04:47:55;;;;;;;7.20;6.40;;;18.10;99.90;;;;;;5043309;28;20704;-53
2022/06/23 04:50:37;;;;;;;8.73;6.47;;;18.20;99.90;;;;;;5047142;28;20725;-54
2022/06/23 04:53:37;;;;;;;10.40;6.23;;;18.30;99.90;;;;;;5035953;28;20200;-54
2022/06/23 04:56:24;;;;;;;12.07;6.10;;;18.30;99.90;;;;;;5045392;28;20265;-54
2022/06/23 04:59:02;;;;;;;8.63;5.77;;;18.50;99.90;;;;;;5041258;28;21238;-53
2022/06/23 05:01:37;;;;;;;7.00;6.33;;;18.50;99.90;;;;;;5041577;28;20660;-60
2022/06/23 05:04:14;;;;;;;7.93;5.70;;;18.60;99.90;;;;;;5046109;28;20582;-52
2022/06/23 05:06:45;;;;;;;7.63;5.77;;;18.80;99.90;;;;;;5042465;28;20199;-54
2022/06/23 05:09:37;;;;;;;9.70;6.07;;;18.90;99.90;;;;;;5044933;28;20623;-54
2022/06/23 05:12:06;;;;;;;8.73;5.60;;;18.60;99.90;;;;;;5040903;28;20556;-54
2022/06/23 05:14:42;;;;;;;8.67;6.30;;;18.80;99.90;;;;;;5046363;28;21240;-53
2022/06/23 05:17:32;;;;;;;6.90;5.87;;;18.90;99.90;;;;;;5043720;28;20562;-55
2022/06/23 05:20:03;;;;;;;8.03;5.70;;;19.20;99.90;;;;;;5040746;28;20875;-54
2022/06/23 05:22:39;;;;;;;11.47;6.07;;;19.20;99.90;;;;;;5040076;28;20708;-54
2022/06/23 05:25:27;;;;;;;9.63;5.80;;;19.30;99.90;;;;;;5047951;28;20677;-54
2022/06/23 05:27:54;;;;;;;8.00;5.73;;;19.50;99.90;;;;;;5028719;28;20807;-54
2022/06/23 05:30:29;;;;;;;6.97;5.87;;;19.70;99.90;;;;;;5042828;28;20642;-54
2022/06/23 05:33:06;;;;;;;6.97;6.23;;;19.80;99.90;;;;;;5043394;28;20238;-54
2022/06/23 05:36:25;;;;;;;6.60;5.97;;;19.80;99.90;;;;;;5044628;28;20211;-54
2022/06/23 05:39:06;;;;;;;7.27;5.10;;;19.70;99.90;;;;;;5042125;28;21566;-54
2022/06/23 05:41:39;;;;;;;8.43;5.97;;;19.60;99.90;;;;;;5040595;28;20231;-54
2022/06/23 05:44:23;;;;;;;6.40;5.80;;;19.70;99.90;;;;;;5041202;28;20644;-54
2022/06/23 05:46:52;;;;;;;7.13;5.77;;;19.90;99.90;;;;;;5041390;28;20222;-54
2022/06/23 05:49:30;;;;;;;8.83;5.63;;;19.80;99.90;;;;;;5041828;28;20223;-54
2022/06/23 05:52:12;;;;;;;6.80;6.10;;;20.10;99.90;;;;;;5045533;28;20207;-54
2022/06/23 05:54:55;;;;;;;6.37;5.47;;;20.20;99.90;;;;;;5047990;28;20569;-54
2022/06/23 05:57:30;;;;;;;9.23;6.03;;;20.50;99.90;;;;;;5040034;28;20610;-54
2022/06/23 06:00:25;;;;;;;7.07;5.87;;;20.60;99.90;;;;;;5031690;28;20959;-54
2022/06/23 06:03:24;;;;;;;6.07;5.30;;;20.80;99.90;;;;;;5044426;28;20687;-54
2022/06/23 06:05:56;;;;;;;7.07;5.37;;;21.10;99.90;;;;;;5045665;28;20266;-55
2022/06/23 06:08:29;;;;;;;8.53;5.90;;;21.10;99.90;;;;;;5043791;28;20196;-54
2022/06/23 06:10:58;;;;;;;6.77;5.77;;;21.20;99.90;;;;;;5040790;28;20289;-55
2022/06/23 06:13:37;;;;;;;6.63;5.43;;;21.10;99.90;;;;;;5047680;28;20581;-55
2022/06/23 06:16:05;;;;;;;8.37;4.87;;;21.40;99.90;;;;;;5046721;28;20195;-55
2022/06/23 06:18:34;;;;;;;8.03;6.57;;;22.10;99.90;;;;;;5044339;28;20251;-55
2022/06/23 06:21:05;;;;;;;9.20;5.70;;;22.00;99.90;;;;;;5046048;28;20200;-55
2022/06/23 06:24:09;;;;;;;10.50;6.20;;;21.60;99.90;;;;;;5044468;28;20249;-55
2022/06/23 06:26:41;;;;;;;13.40;6.60;;;21.70;99.90;;;;;;5046786;28;20215;-55
2022/06/23 06:29:24;;;;;;;9.10;5.83;;;21.50;99.90;;;;;;5053219;28;20584;-53
2022/06/23 06:31:58;;;;;;;8.47;5.57;;;21.40;99.90;;;;;;5035676;28;20243;-54
2022/06/23 06:34:54;;;;;;;7.70;5.50;;;21.80;99.90;;;;;;5039211;28;21301;-53
2022/06/23 06:37:28;;;;;;;7.03;5.73;;;22.40;96.10;;;;;;5045488;28;20204;-54
2022/06/23 06:39:58;;;;;;;9.20;6.13;;;22.80;79.20;;;;;;5047216;28;20308;-54
2022/06/23 06:42:29;;;;;;;6.60;5.80;;;22.70;83.70;;;;;;5042865;28;20197;-56
2022/06/23 06:44:59;;;;;;;7.17;5.70;;;22.70;85.70;;;;;;5045760;28;20230;-54
2022/06/23 06:47:29;;;;;;;9.20;6.20;;;22.80;84.50;;;;;;5044911;28;20206;-54
2022/06/23 06:50:00;;;;;;;9.83;5.47;;;23.50;46.10;;;;;;5050285;28;20571;-54
2022/06/23 06:52:27;;;;;;;7.20;6.10;;;23.90;71.50;;;;;;5046160;28;20202;-54
2022/06/23 06:55:25;;;;;;;6.67;5.60;;;23.40;97.00;;;;;;5048104;28;20294;-54
2022/06/23 06:58:05;;;;;;;8.20;5.33;;;24.20;65.40;;;;;;5035158;28;20243;-54
2022/06/23 07:00:42;;;;;;;6.70;4.90;;;23.70;60.40;;;;;;5040673;28;20332;-54
2022/06/23 07:03:15;;;;;;;7.93;5.80;;;23.90;39.30;;;;;;5048882;28;20230;-54
2022/06/23 07:05:50;;;;;;;9.10;6.40;;;24.10;46.00;;;;;;5039749;28;20223;-54
2022/06/23 07:08:33;;;;;;;8.32;6.40;;;24.20;42.20;;;;;;5039770;28;20447;-56
2022/06/23 07:11:14;;;;;;;7.50;6.20;;;23.80;44.20;;;;;;5044195;28;20295;-53
2022/06/23 07:14:05;;;;;;;8.60;5.70;;;23.70;34.00;;;;;;5035792;28;20271;-54
2022/06/23 07:16:50;;;;;;;9.77;6.10;;;23.80;43.60;;;;;;5041785;28;20218;-53
2022/06/23 07:19:34;;;;;;;8.30;5.87;;;23.80;60.20;;;;;;5051584;28;20590;-55
2022/06/23 07:22:10;;;;;;;11.20;6.50;;;24.00;90.30;;;;;;5043684;28;20277;-54
2022/06/23 07:24:51;;;;;;;8.43;6.10;;;24.10;79.30;;;;;;5041622;28;20769;-54
2022/06/23 07:27:30;;;;;;;6.87;6.17;;;24.30;89.30;;;;;;5046040;28;20297;-54
2022/06/23 07:30:05;;;;;;;8.73;6.43;;;24.00;74.70;;;;;;5038742;28;20810;-53
2022/06/23 07:32:32;;;;;;;10.57;6.33;;;24.00;65.70;;;;;;5042476;28;20248;-56
2022/06/23 07:35:25;;;;;;;8.70;6.70;;;24.30;90.80;;;;;;5055196;28;20950;-56
2022/06/23 07:38:07;;;;;;;8.83;6.37;;;24.50;75.70;;;;;;5052946;28;20203;-54
2022/06/23 07:40:47;;;;;;;7.33;5.97;;;24.50;60.40;;;;;;5049606;28;20282;-54
2022/06/23 07:43:37;;;;;;;8.63;6.20;;;24.60;61.20;;;;;;5051742;28;20200;-52
2022/06/23 07:46:04;;;;;;;7.47;6.50;;;24.70;76.50;;;;;;5044242;28;20562;-53
2022/06/23 07:48:34;;;;;;;7.83;6.60;;;25.10;77.70;;;;;;5042945;28;20251;-53
2022/06/23 07:51:04;;;;;;;5.33;4.83;;;25.70;45.80;;;;;;5047650;28;20214;-54
2022/06/23 07:53:37;;;;;;;7.90;6.20;;;26.10;42.20;;;;;;5044119;28;20196;-54
2022/06/23 07:56:06;;;;;;;8.23;5.60;;;26.10;29.30;;;;;;5041636;28;20211;-54
2022/06/23 07:58:36;;;;;;;6.20;4.97;;;27.00;53.90;;;;;;5043577;28;20330;-54
2022/06/23 08:01:26;;;;;;;8.47;5.70;;;27.80;35.40;;;;;;5051133;28;20276;-54
2022/06/23 08:04:19;;;;;;;10.50;5.43;;;27.60;44.30;;;;;;5038134;28;20215;-54
2022/06/23 08:06:47;;;;;;;8.40;5.80;;;27.70;33.20;;;;;;5052523;28;20273;-54
2022/06/23 08:09:24;;;;;;;7.67;5.80;;;27.50;85.80;;;;;;5052685;28;20423;-54
2022/06/23 08:14:43;;;;;;;9.77;5.75;;;27.80;28.70;;;;;;5049726;28;20700;-53
2022/06/23 08:17:16;;;;;;;6.05;5.53;;;27.50;1.00;;;;;;5050416;28;20612;-54
2022/06/23 08:19:56;;;;;;;10.25;7.28;;;28.20;1.00;;;;;;5053106;28;20208;-54
2022/06/23 08:22:27;;;;;;;8.05;5.97;;;27.80;1.00;;;;;;5052484;28;20231;-54
2022/06/23 08:25:05;;;;;;;10.00;6.97;;;27.90;1.00;;;;;;5050380;28;20207;-54
2022/06/23 08:27:52;;;;;;;13.35;7.82;;;28.30;2.70;;;;;;5049548;28;20340;-53
2022/06/23 08:30:20;;;;;;;10.43;6.45;;;28.40;1.00;;;;;;5046961;28;20211;-54
2022/06/23 08:32:51;;;;;;;27.75;9.32;;;28.90;60.70;;;;;;5051016;28;20258;-54
2022/06/23 08:35:41;;;;;;;8.48;7.03;;;27.80;65.80;;;;;;5051534;28;20285;-54
2022/06/23 08:38:20;;;;;;;9.25;7.22;;;28.60;1.00;;;;;;5050787;28;20728;-54
2022/06/23 08:41:02;;;;;;;10.43;6.95;;;29.00;18.50;;;;;;5050433;28;20199;-54
2022/06/23 08:43:32;;;;;;;7.63;6.20;;;28.80;1.00;;;;;;5052923;28;20236;-53
2022/06/23 08:46:54;;;;;;;10.67;7.70;;;29.80;1.00;;;;;;5049657;28;20230;-54
2022/06/23 08:49:36;;;;;;;9.97;7.37;;;29.10;1.00;;;;;;4978720;28;20309;-54
2022/06/23 08:52:17;;;;;;;9.10;7.30;;;29.00;1.00;;;;;;5050294;28;20286;-54
2022/06/23 08:54:50;;;;;;;11.03;8.00;;;28.90;1.00;;;;;;5051238;28;20269;-54
2022/06/23 08:57:23;;;;;;;11.23;7.97;;;29.20;1.40;;;;;;5050919;28;20751;-53
2022/06/23 09:00:16;;;;;;;10.10;8.13;;;28.50;1.00;;;;;;5050849;28;20215;-53
2022/06/23 09:02:53;;;;;;;7.57;6.67;;;28.70;1.00;;;;;;5049182;28;20203;-53
2022/06/23 09:05:43;;;;;;;13.48;8.75;;;29.10;1.00;;;;;;5048631;28;20231;-53
2022/06/23 09:08:40;;;;;;;10.60;7.80;;;29.20;19.60;;;;;;5049155;28;20705;-53
2022/06/23 09:12:02;;;;;;;14.07;8.77;;;29.60;1.00;;;;;;5049222;28;20203;-53
2022/06/23 09:14:44;;;;;;;10.77;7.70;;;29.60;7.10;;;;;;5048798;28;20208;-53
2022/06/23 09:17:20;;;;;;;10.25;7.70;;;29.50;1.00;;;;;;5048249;28;20208;-53
2022/06/23 09:20:07;;;;;;;12.32;7.82;;;29.30;1.00;;;;;;5052034;28;20287;-53
2022/06/23 09:22:40;;;;;;;11.50;6.55;;;30.10;1.00;;;;;;5039513;28;20294;-54
2022/06/23 09:25:34;;;;;;;9.97;7.03;;;30.30;1.00;;;;;;5050726;28;20199;-53
2022/06/23 09:28:18;;;;;;;13.05;5.43;;;29.80;1.00;;;;;;5047319;28;20193;-53
2022/06/23 09:31:21;;;;;;;8.38;7.07;;;30.60;30.90;;;;;;5043977;28;20301;-53
2022/06/23 09:34:25;;;;;;;12.02;6.28;;;29.90;20.70;;;;;;5043254;28;20199;-54
2022/06/23 09:37:24;;;;;;;9.77;6.53;;;29.90;37.80;;;;;;5055164;28;20211;-52
2022/06/23 09:40:10;;;;;;;7.13;5.30;;;29.60;1.00;;;;;;5053960;28;20211;-53
2022/06/23 09:42:55;;;;;;;6.57;5.88;;;29.90;1.00;;;;;;5053927;28;20410;-53
2022/06/23 09:45:37;;;;;;;11.23;5.28;;;30.30;1.00;;;;;;5052528;28;20618;-55
2022/06/23 09:48:42;;;;;;;8.55;6.28;;;29.90;1.00;;;;;;5054587;28;20763;-53
2022/06/23 09:51:23;;;;;;;7.07;5.25;;;30.00;1.00;;;;;;5055149;28;20192;-54
2022/06/23 09:54:27;;;;;;;8.00;5.97;;;29.80;1.00;;;;;;5051521;28;20199;-54
2022/06/23 09:57:42;;;;;;;7.00;5.13;;;29.90;1.00;;;;;;5024755;28;20305;-53
2022/06/23 10:00:09;;;;;;;7.28;4.95;;;30.00;1.00;;;;;;5033421;28;20258;-54
2022/06/23 10:03:15;;;;;;;7.30;5.00;;;30.00;1.00;;;;;;5054408;28;20272;-53
2022/06/23 10:06:01;;;;;;;7.65;4.28;;;30.10;1.00;;;;;;5054828;28;20235;-54
2022/06/23 10:08:54;;;;;;;12.40;4.80;;;30.40;1.00;;;;;;5050077;28;20270;-54
2022/06/23 10:12:07;;;;;;;7.57;4.60;;;29.50;1.00;;;;;;5054088;28;20771;-53
2022/06/23 10:15:07;;;;;;;9.73;4.03;;;29.50;1.00;;;;;;4996659;28;20212;-54
2022/06/23 10:17:52;;;;;;;8.00;3.50;;;29.10;1.00;;;;;;4995024;28;20213;-54
2022/06/23 10:20:34;;;;;;;10.07;3.38;;;29.60;1.00;;;;;;4996353;28;20225;-54
2022/06/23 10:23:16;;;;;;;8.20;3.75;;;30.10;1.00;;;;;;4996619;28;20213;-54
2022/06/23 10:26:08;;;;;;;6.18;3.13;;;29.80;1.00;;;;;;4996415;28;20264;-54
2022/06/23 10:28:41;;;;;;;7.90;3.00;;;29.60;1.00;;;;;;5000675;28;20206;-53
2022/06/23 10:31:52;;;;;;;6.20;2.88;;;28.90;15.30;;;;;;4994265;28;20243;-53
2022/06/23 10:34:49;;;;;;;4.53;2.70;;;29.10;29.00;;;;;;4985782;28;20232;-54
2022/06/23 10:37:41;;;;;;;9.00;3.20;;;30.00;1.00;;;;;;4999506;28;20360;-53
2022/06/23 10:40:26;;;;;;;5.20;2.60;;;30.50;1.00;;;;;;4998126;28;20205;-53
2022/06/23 10:43:30;;;;;;;6.30;3.13;;;31.00;1.00;;;;;;4998438;28;20208;-53
2022/06/23 10:46:13;;;;;;;7.88;3.10;;;30.40;1.00;;;;;;5040325;28;20313;-53
2022/06/23 10:49:01;;;;;;;6.40;3.50;;;29.60;1.00;;;;;;5050694;28;20262;-53
2022/06/23 10:51:27;;;;;;;8.05;4.88;;;29.30;1.70;;;;;;5053002;28;20232;-53
2022/06/23 10:54:25;;;;;;;6.93;3.72;;;29.30;1.00;;;;;;5049142;28;20204;-53
2022/06/23 10:57:14;;;;;;;7.68;3.80;;;29.00;24.10;;;;;;5049274;28;20275;-54
2022/06/23 10:59:59;;;;;;;8.50;3.63;;;28.80;63.60;;;;;;5037112;28;20203;-53
2022/06/23 11:02:38;;;;;;;5.88;3.33;;;29.40;60.30;;;;;;5046437;28;20241;-56
2022/06/23 11:05:23;;;;;;;7.10;2.93;;;29.90;32.10;;;;;;5051483;28;20222;-53
2022/06/23 11:08:20;;;;;;;5.20;3.55;;;30.50;50.60;;;;;;5039305;28;20331;-53
2022/06/23 11:11:02;;;;;;;9.33;3.60;;;30.10;29.50;;;;;;5046409;28;20239;-53
2022/06/23 11:13:51;;;;;;;8.48;4.40;;;30.00;3.70;;;;;;5052459;28;20219;-54
2022/06/23 11:16:37;;;;;;;8.52;3.80;;;30.20;7.30;;;;;;5048612;28;20768;-54
2022/06/23 11:19:28;;;;;;;7.40;3.80;;;30.70;1.00;;;;;;5052667;28;20236;-54
2022/06/23 11:22:33;;;;;;;8.90;3.63;;;31.00;1.00;;;;;;5052959;28;20303;-54
2022/06/23 11:25:18;;;;;;;7.90;3.70;;;30.60;28.40;;;;;;5052537;28;20292;-54
2022/06/23 11:27:57;;;;;;;8.93;3.50;;;30.00;29.20;;;;;;5050239;28;20216;-54
2022/06/23 11:30:36;;;;;;;6.10;3.05;;;31.80;2.80;;;;;;5051253;28;20747;-54
2022/06/23 11:33:08;;;;;;;7.45;4.43;;;31.50;1.00;;;;;;5040955;28;20201;-54
2022/06/23 11:35:59;;;;;;;7.15;3.35;;;31.60;55.10;;;;;;5055819;28;20228;-54
2022/06/23 11:38:53;;;;;;;9.07;3.47;;;31.40;9.00;;;;;;5054406;28;20619;-54
2022/06/23 11:41:53;;;;;;;8.00;3.22;;;31.30;1.00;;;;;;5049251;28;20204;-54
2022/06/23 11:44:20;;;;;;;8.13;3.15;;;31.60;19.80;;;;;;5020540;28;20621;-54
2022/06/23 11:47:00;;;;;;;10.20;3.63;;;31.50;1.00;;;;;;5048354;28;20734;-54
2022/06/23 11:49:45;;;;;;;7.80;3.45;;;31.70;1.00;;;;;;5050624;28;20662;-54
2022/06/23 11:52:48;;;;;;;8.02;3.05;;;31.90;5.00;;;;;;5049813;28;20214;-54
2022/06/23 11:55:50;;;;;;;6.60;3.40;;;31.50;18.90;;;;;;5054506;28;20199;-54
2022/06/23 11:58:36;;;;;;;5.60;2.85;;;30.50;1.00;;;;;;5032566;28;20275;-54
2022/06/23 12:01:17;;;;;;;6.55;3.38;;;31.00;4.30;;;;;;5045342;28;20192;-54
2022/06/23 12:04:03;;;;;;;4.00;2.63;;;30.50;1.00;;;;;;5049355;28;20234;-54
2022/06/23 12:06:51;;;;;;;6.65;2.72;;;31.60;21.20;;;;;;5033092;28;20216;-54
2022/06/23 12:09:21;;;;;;;5.70;3.03;;;31.70;26.50;;;;;;5042951;28;20240;-54
2022/06/23 12:11:54;;;;;;;8.15;3.28;;;31.70;7.70;;;;;;5048576;28;20683;-54
2022/06/23 12:14:23;;;;;;;7.90;2.90;;;32.10;43.60;;;;;;5052864;28;20203;-54
2022/06/23 12:17:19;;;;;;;9.15;3.15;;;32.60;95.40;;;;;;5050506;28;20619;-54
2022/06/23 12:20:24;;;;;;;8.02;2.85;;;32.40;99.90;;;;;;5050462;28;20216;-54
2022/06/23 12:23:17;;;;;;;6.93;3.40;;;32.40;99.90;;;;;;5051318;28;20298;-54
2022/06/23 12:26:07;;;;;;;6.57;3.10;;;32.50;99.90;;;;;;5051011;28;20309;-54
2022/06/23 12:28:50;;;;;;;6.35;3.22;;;32.70;99.90;;;;;;5042804;28;20676;-53
2022/06/23 12:31:40;;;;;;;7.55;3.15;;;31.80;99.90;;;;;;5041259;28;20695;-54
2022/06/23 12:34:20;;;;;;;6.95;4.00;;;31.70;95.40;;;;;;5048287;28;20298;-54
2022/06/23 12:36:58;;;;;;;8.68;3.42;;;32.20;99.90;;;;;;5061890;28;20219;-53
2022/06/23 12:39:44;;;;;;;9.30;3.47;;;31.50;90.10;;;;;;5048719;28;20631;-54
2022/06/23 12:42:19;;;;;;;6.82;3.97;;;31.40;93.40;;;;;;5051951;28;20257;-54
2022/06/23 12:45:09;;;;;;;9.57;3.80;;;31.60;96.40;;;;;;5048881;28;20657;-54
2022/06/23 12:48:02;;;;;;;5.22;3.50;;;31.50;90.20;;;;;;5042370;28;20335;-54
2022/06/23 12:50:57;;;;;;;6.30;3.47;;;32.40;96.60;;;;;;5012533;28;20218;-54
2022/06/23 12:53:30;;;;;;;9.57;3.45;;;32.30;92.40;;;;;;5040593;28;20217;-54
2022/06/23 12:56:21;;;;;;;7.45;3.78;;;31.80;88.60;;;;;;5041486;28;20220;-54
2022/06/23 12:59:06;;;;;;;7.45;3.60;;;31.70;90.90;;;;;;5040488;28;20273;-54
2022/06/23 13:01:47;;;;;;;9.10;4.10;;;31.50;91.00;;;;;;5029796;28;20328;-54
2022/06/23 13:04:41;;;;;;;8.63;3.70;;;31.40;90.70;;;;;;5036410;28;20196;-54
2022/06/23 13:07:34;;;;;;;7.57;3.92;;;31.50;95.90;;;;;;5041140;28;20243;-54
2022/06/23 13:10:10;;;;;;;7.38;4.07;;;31.90;88.40;;;;;;5035107;28;20398;-54
2022/06/23 13:12:37;;;;;;;10.50;3.42;;;32.20;95.20;;;;;;5038686;28;20206;-54
2022/06/23 13:15:12;;;;;;;11.05;3.33;;;32.10;98.70;;;;;;5043016;28;20580;-52
2022/06/23 13:17:59;;;;;;;8.23;3.05;;;32.20;99.90;;;;;;5052350;28;20207;-54
2022/06/23 13:20:32;;;;;;;6.90;3.35;;;32.10;99.90;;;;;;5050051;28;20686;-54
2022/06/23 13:23:10;;;;;;;9.38;3.20;;;32.40;99.90;;;;;;5045255;28;20645;-54
2022/06/23 13:26:33;;;;;;;7.90;3.38;;;31.30;78.60;;;;;;5053318;28;20204;-54
2022/06/23 13:29:06;;;;;;;7.70;3.30;;;31.10;73.30;;;;;;5040541;28;20208;-54
2022/06/23 13:31:42;;;;;;;9.85;3.88;;;31.10;78.10;;;;;;5044912;28;20614;-54
2022/06/23 13:34:27;;;;;;;8.73;3.72;;;30.90;88.80;;;;;;5051146;28;20236;-54
2022/06/23 13:37:00;;;;;;;6.00;3.55;;;31.30;90.80;;;;;;5047533;28;20214;-54
2022/06/23 13:39:43;;;;;;;7.43;3.20;;;31.30;97.10;;;;;;5044792;28;20238;-54
2022/06/23 13:42:13;;;;;;;8.45;3.83;;;30.70;99.90;;;;;;5046531;28;20555;-54
2022/06/23 13:44:49;;;;;;;4.55;2.58;;;30.30;99.90;;;;;;5044908;28;20684;-53
2022/06/23 13:47:24;;;;;;;3.47;2.72;;;30.60;96.10;;;;;;5038598;28;20270;-54
2022/06/23 13:50:18;;;;;;;5.97;3.03;;;31.10;95.90;;;;;;5044719;28;20208;-54
2022/06/23 13:52:49;;;;;;;4.85;2.72;;;31.10;88.60;;;;;;5049231;28;20641;-55
2022/06/23 13:55:24;;;;;;;5.55;3.13;;;31.30;93.40;;;;;;5052775;28;20328;-54
2022/06/23 13:58:04;;;;;;;5.03;3.25;;;31.50;91.40;;;;;;5042768;28;20350;-54
2022/06/23 14:00:44;;;;;;;4.45;3.10;;;31.80;93.20;;;;;;5036680;28;20203;-54
2022/06/23 14:03:42;;;;;;;4.57;3.17;;;31.40;91.80;;;;;;5041315;28;20660;-53
2022/06/23 14:06:14;;;;;;;6.15;3.10;;;32.10;86.00;;;;;;5045456;28;20253;-54
2022/06/23 14:08:52;;;;;;;6.57;3.30;;;31.40;92.80;;;;;;5044433;28;20239;-54